sensor_id;sensor_type;location;lat;lon;timestamp;temperature;humidity
79301;SHT31;68755;51.984;5.646;2023-11-18T00:00:53;7.8;81.4
79301;SHT31;68755;51.984;5.646;2023-11-18T00:03:25;7.8;81.3
79301;SHT31;68755;51.984;5.646;2023-11-18T00:05:54;7.8;81.1
79301;SHT31;68755;51.984;5.646;2023-11-18T00:08:24;7.8;81.2
79301;SHT31;68755;51.984;5.646;2023-11-18T00:10:54;7.8;81.2
79301;SHT31;68755;51.984;5.646;2023-11-18T00:13:24;7.7;81.0
79301;SHT31;68755;51.984;5.646;2023-11-18T00:15:55;7.7;81.0
79301;SHT31;68755;51.984;5.646;2023-11-18T00:18:25;7.7;81.1
79301;SHT31;68755;51.984;5.646;2023-11-18T00:20:56;7.7;81.0
79301;SHT31;68755;51.984;5.646;2023-11-18T00:23:28;7.7;81.0
79301;SHT31;68755;51.984;5.646;2023-11-18T00:25:58;7.7;81.2
79301;SHT31;68755;51.984;5.646;2023-11-18T00:28:27;7.7;81.2
79301;SHT31;68755;51.984;5.646;2023-11-18T00:30:57;7.7;81.2
79301;SHT31;68755;51.984;5.646;2023-11-18T00:33:27;7.7;81.1
79301;SHT31;68755;51.984;5.646;2023-11-18T00:35:56;7.7;81.0
79301;SHT31;68755;51.984;5.646;2023-11-18T00:38:27;7.7;80.9
79301;SHT31;68755;51.984;5.646;2023-11-18T00:40:58;7.7;80.8
79301;SHT31;68755;51.984;5.646;2023-11-18T00:43:27;7.7;80.6
79301;SHT31;68755;51.984;5.646;2023-11-18T00:45:59;7.7;80.4
79301;SHT31;68755;51.984;5.646;2023-11-18T00:48:30;7.7;80.5
79301;SHT31;68755;51.984;5.646;2023-11-18T00:51:00;7.7;80.4
79301;SHT31;68755;51.984;5.646;2023-11-18T00:53:29;7.6;80.3
79301;SHT31;68755;51.984;5.646;2023-11-18T00:55:59;7.6;80.3
79301;SHT31;68755;51.984;5.646;2023-11-18T00:58:28;7.6;80.4
79301;SHT31;68755;51.984;5.646;2023-11-18T01:00:58;7.5;80.5
79301;SHT31;68755;51.984;5.646;2023-11-18T01:03:29;7.5;80.6
79301;SHT31;68755;51.984;5.646;2023-11-18T01:05:59;7.5;80.8
79301;SHT31;68755;51.984;5.646;2023-11-18T01:08:32;7.4;80.8
79301;SHT31;68755;51.984;5.646;2023-11-18T01:11:02;7.4;80.7
79301;SHT31;68755;51.984;5.646;2023-11-18T01:13:31;7.4;80.7
79301;SHT31;68755;51.984;5.646;2023-11-18T01:16:03;7.4;80.9
79301;SHT31;68755;51.984;5.646;2023-11-18T01:18:33;7.3;80.8
79301;SHT31;68755;51.984;5.646;2023-11-18T01:21:03;7.3;80.8
79301;SHT31;68755;51.984;5.646;2023-11-18T01:23:36;7.3;81.0
79301;SHT31;68755;51.984;5.646;2023-11-18T01:26:06;7.3;81.1
79301;SHT31;68755;51.984;5.646;2023-11-18T01:28:36;7.3;81.2
79301;SHT31;68755;51.984;5.646;2023-11-18T01:31:09;7.2;81.3
79301;SHT31;68755;51.984;5.646;2023-11-18T01:33:40;7.2;81.4
79301;SHT31;68755;51.984;5.646;2023-11-18T01:36:12;7.2;81.6
79301;SHT31;68755;51.984;5.646;2023-11-18T01:38:42;7.2;81.7
79301;SHT31;68755;51.984;5.646;2023-11-18T01:41:11;7.2;81.9
79301;SHT31;68755;51.984;5.646;2023-11-18T01:43:41;7.2;82.0
79301;SHT31;68755;51.984;5.646;2023-11-18T01:46:11;7.2;82.2
79301;SHT31;68755;51.984;5.646;2023-11-18T01:48:41;7.2;82.1
79301;SHT31;68755;51.984;5.646;2023-11-18T01:51:11;7.3;82.1
79301;SHT31;68755;51.984;5.646;2023-11-18T01:53:43;7.3;81.9
79301;SHT31;68755;51.984;5.646;2023-11-18T01:56:13;7.3;81.9
79301;SHT31;68755;51.984;5.646;2023-11-18T01:58:43;7.3;81.8
79301;SHT31;68755;51.984;5.646;2023-11-18T02:01:14;7.3;81.8
79301;SHT31;68755;51.984;5.646;2023-11-18T02:03:45;7.3;81.8
79301;SHT31;68755;51.984;5.646;2023-11-18T02:06:17;7.3;81.7
79301;SHT31;68755;51.984;5.646;2023-11-18T02:08:48;7.4;81.7
79301;SHT31;68755;51.984;5.646;2023-11-18T02:11:28;7.4;81.6
79301;SHT31;68755;51.984;5.646;2023-11-18T02:14:01;7.4;81.7
79301;SHT31;68755;51.984;5.646;2023-11-18T02:16:33;7.4;81.6
79301;SHT31;68755;51.984;5.646;2023-11-18T02:19:03;7.4;81.6
79301;SHT31;68755;51.984;5.646;2023-11-18T02:21:37;7.4;81.7
79301;SHT31;68755;51.984;5.646;2023-11-18T02:24:08;7.4;81.6
79301;SHT31;68755;51.984;5.646;2023-11-18T02:26:38;7.4;81.6
79301;SHT31;68755;51.984;5.646;2023-11-18T02:29:08;7.5;81.3
79301;SHT31;68755;51.984;5.646;2023-11-18T02:31:38;7.5;81.2
79301;SHT31;68755;51.984;5.646;2023-11-18T02:34:14;7.5;81.2
79301;SHT31;68755;51.984;5.646;2023-11-18T02:36:49;7.5;81.2
79301;SHT31;68755;51.984;5.646;2023-11-18T02:39:22;7.5;81.1
79301;SHT31;68755;51.984;5.646;2023-11-18T02:41:55;7.5;81.0
79301;SHT31;68755;51.984;5.646;2023-11-18T02:44:27;7.5;81.2
79301;SHT31;68755;51.984;5.646;2023-11-18T02:47:00;7.5;81.1
79301;SHT31;68755;51.984;5.646;2023-11-18T02:49:32;7.4;81.1
79301;SHT31;68755;51.984;5.646;2023-11-18T02:52:01;7.4;81.1
79301;SHT31;68755;51.984;5.646;2023-11-18T02:54:32;7.4;81.1
79301;SHT31;68755;51.984;5.646;2023-11-18T02:57:02;7.4;81.1
79301;SHT31;68755;51.984;5.646;2023-11-18T02:59:32;7.4;81.1
79301;SHT31;68755;51.984;5.646;2023-11-18T03:02:01;7.4;81.1
79301;SHT31;68755;51.984;5.646;2023-11-18T03:04:33;7.4;81.2
79301;SHT31;68755;51.984;5.646;2023-11-18T03:07:03;7.4;81.2
79301;SHT31;68755;51.984;5.646;2023-11-18T03:09:34;7.4;81.2
79301;SHT31;68755;51.984;5.646;2023-11-18T03:12:07;7.4;81.1
79301;SHT31;68755;51.984;5.646;2023-11-18T03:14:37;7.5;81.2
79301;SHT31;68755;51.984;5.646;2023-11-18T03:17:07;7.5;81.0
79301;SHT31;68755;51.984;5.646;2023-11-18T03:19:37;7.5;81.0
79301;SHT31;68755;51.984;5.646;2023-11-18T03:22:08;7.5;81.0
79301;SHT31;68755;51.984;5.646;2023-11-18T03:24:38;7.5;80.9
79301;SHT31;68755;51.984;5.646;2023-11-18T03:27:08;7.5;80.9
79301;SHT31;68755;51.984;5.646;2023-11-18T03:29:38;7.5;80.9
79301;SHT31;68755;51.984;5.646;2023-11-18T03:32:08;7.5;81.0
79301;SHT31;68755;51.984;5.646;2023-11-18T03:34:39;7.5;80.9
79301;SHT31;68755;51.984;5.646;2023-11-18T03:37:09;7.5;81.0
79301;SHT31;68755;51.984;5.646;2023-11-18T03:39:39;7.5;81.2
79301;SHT31;68755;51.984;5.646;2023-11-18T03:42:10;7.5;81.2
79301;SHT31;68755;51.984;5.646;2023-11-18T03:44:40;7.5;81.2
79301;SHT31;68755;51.984;5.646;2023-11-18T03:47:09;7.5;81.2
79301;SHT31;68755;51.984;5.646;2023-11-18T03:49:39;7.5;81.2
79301;SHT31;68755;51.984;5.646;2023-11-18T03:52:09;7.5;81.2
79301;SHT31;68755;51.984;5.646;2023-11-18T03:54:39;7.5;81.3
79301;SHT31;68755;51.984;5.646;2023-11-18T03:57:09;7.5;81.4
79301;SHT31;68755;51.984;5.646;2023-11-18T03:59:39;7.5;81.4
79301;SHT31;68755;51.984;5.646;2023-11-18T04:02:08;7.5;81.5
79301;SHT31;68755;51.984;5.646;2023-11-18T04:04:38;7.5;81.6
79301;SHT31;68755;51.984;5.646;2023-11-18T04:07:08;7.5;81.6
79301;SHT31;68755;51.984;5.646;2023-11-18T04:09:37;7.5;81.6
79301;SHT31;68755;51.984;5.646;2023-11-18T04:12:08;7.5;81.6
79301;SHT31;68755;51.984;5.646;2023-11-18T04:14:39;7.5;81.5
79301;SHT31;68755;51.984;5.646;2023-11-18T04:17:08;7.5;81.5
79301;SHT31;68755;51.984;5.646;2023-11-18T04:19:38;7.5;81.6
79301;SHT31;68755;51.984;5.646;2023-11-18T04:22:08;7.5;81.6
79301;SHT31;68755;51.984;5.646;2023-11-18T04:24:39;7.5;81.6
79301;SHT31;68755;51.984;5.646;2023-11-18T04:27:09;7.5;81.5
79301;SHT31;68755;51.984;5.646;2023-11-18T04:29:39;7.5;81.7
79301;SHT31;68755;51.984;5.646;2023-11-18T04:32:09;7.5;81.8
79301;SHT31;68755;51.984;5.646;2023-11-18T04:34:41;7.5;81.9
79301;SHT31;68755;51.984;5.646;2023-11-18T04:37:11;7.5;82.0
79301;SHT31;68755;51.984;5.646;2023-11-18T04:39:43;7.5;82.0
79301;SHT31;68755;51.984;5.646;2023-11-18T04:42:12;7.5;81.9
79301;SHT31;68755;51.984;5.646;2023-11-18T04:44:42;7.6;81.9
79301;SHT31;68755;51.984;5.646;2023-11-18T04:47:12;7.6;81.9
79301;SHT31;68755;51.984;5.646;2023-11-18T04:49:42;7.6;81.8
79301;SHT31;68755;51.984;5.646;2023-11-18T04:52:11;7.6;81.7
79301;SHT31;68755;51.984;5.646;2023-11-18T04:54:41;7.6;81.7
79301;SHT31;68755;51.984;5.646;2023-11-18T04:57:13;7.6;81.7
79301;SHT31;68755;51.984;5.646;2023-11-18T04:59:43;7.6;81.7
79301;SHT31;68755;51.984;5.646;2023-11-18T05:02:12;7.6;81.7
79301;SHT31;68755;51.984;5.646;2023-11-18T05:04:42;7.6;81.7
79301;SHT31;68755;51.984;5.646;2023-11-18T05:07:12;7.6;81.7
79301;SHT31;68755;51.984;5.646;2023-11-18T05:09:42;7.6;81.7
79301;SHT31;68755;51.984;5.646;2023-11-18T05:12:13;7.6;81.8
79301;SHT31;68755;51.984;5.646;2023-11-18T05:14:43;7.6;81.9
79301;SHT31;68755;51.984;5.646;2023-11-18T05:17:12;7.6;81.8
79301;SHT31;68755;51.984;5.646;2023-11-18T05:19:42;7.6;81.9
79301;SHT31;68755;51.984;5.646;2023-11-18T05:22:12;7.6;81.9
79301;SHT31;68755;51.984;5.646;2023-11-18T05:24:43;7.6;81.9
79301;SHT31;68755;51.984;5.646;2023-11-18T05:27:13;7.6;82.0
79301;SHT31;68755;51.984;5.646;2023-11-18T05:29:45;7.6;82.1
79301;SHT31;68755;51.984;5.646;2023-11-18T05:32:19;7.7;82.0
79301;SHT31;68755;51.984;5.646;2023-11-18T05:34:50;7.7;82.0
79301;SHT31;68755;51.984;5.646;2023-11-18T05:37:22;7.7;81.8
79301;SHT31;68755;51.984;5.646;2023-11-18T05:39:52;7.7;81.7
79301;SHT31;68755;51.984;5.646;2023-11-18T05:42:26;7.7;81.5
79301;SHT31;68755;51.984;5.646;2023-11-18T05:44:56;7.7;81.5
79301;SHT31;68755;51.984;5.646;2023-11-18T05:47:27;7.7;81.5
79301;SHT31;68755;51.984;5.646;2023-11-18T05:49:57;7.7;81.5
79301;SHT31;68755;51.984;5.646;2023-11-18T05:52:26;7.7;81.6
79301;SHT31;68755;51.984;5.646;2023-11-18T05:54:56;7.7;81.6
79301;SHT31;68755;51.984;5.646;2023-11-18T05:57:25;7.7;81.6
79301;SHT31;68755;51.984;5.646;2023-11-18T05:59:56;7.7;81.5
79301;SHT31;68755;51.984;5.646;2023-11-18T06:02:25;7.7;81.6
79301;SHT31;68755;51.984;5.646;2023-11-18T06:04:57;7.7;81.6
79301;SHT31;68755;51.984;5.646;2023-11-18T06:07:27;7.7;81.7
79301;SHT31;68755;51.984;5.646;2023-11-18T06:09:57;7.7;81.7
79301;SHT31;68755;51.984;5.646;2023-11-18T06:12:27;7.7;81.6
79301;SHT31;68755;51.984;5.646;2023-11-18T06:14:57;7.7;81.6
79301;SHT31;68755;51.984;5.646;2023-11-18T06:17:27;7.7;81.5
79301;SHT31;68755;51.984;5.646;2023-11-18T06:19:57;7.7;81.5
79301;SHT31;68755;51.984;5.646;2023-11-18T06:22:26;7.7;81.4
79301;SHT31;68755;51.984;5.646;2023-11-18T06:24:57;7.7;81.5
79301;SHT31;68755;51.984;5.646;2023-11-18T06:27:26;7.7;81.5
79301;SHT31;68755;51.984;5.646;2023-11-18T06:29:57;7.7;81.5
79301;SHT31;68755;51.984;5.646;2023-11-18T06:32:27;7.7;81.5
79301;SHT31;68755;51.984;5.646;2023-11-18T06:34:58;7.7;81.5
79301;SHT31;68755;51.984;5.646;2023-11-18T06:37:34;7.7;81.4
79301;SHT31;68755;51.984;5.646;2023-11-18T06:40:05;7.7;81.4
79301;SHT31;68755;51.984;5.646;2023-11-18T06:42:42;7.7;81.4
79301;SHT31;68755;51.984;5.646;2023-11-18T06:45:14;7.7;81.4
79301;SHT31;68755;51.984;5.646;2023-11-18T06:47:44;7.7;81.5
79301;SHT31;68755;51.984;5.646;2023-11-18T06:50:14;7.7;81.6
79301;SHT31;68755;51.984;5.646;2023-11-18T06:52:43;7.7;81.5
79301;SHT31;68755;51.984;5.646;2023-11-18T06:55:14;7.7;81.5
79301;SHT31;68755;51.984;5.646;2023-11-18T06:57:44;7.7;81.5
79301;SHT31;68755;51.984;5.646;2023-11-18T07:00:14;7.7;81.6
79301;SHT31;68755;51.984;5.646;2023-11-18T07:02:44;7.8;81.6
79301;SHT31;68755;51.984;5.646;2023-11-18T07:05:14;7.8;81.7
79301;SHT31;68755;51.984;5.646;2023-11-18T07:07:45;7.8;81.7
79301;SHT31;68755;51.984;5.646;2023-11-18T07:10:15;7.8;81.7
79301;SHT31;68755;51.984;5.646;2023-11-18T07:12:48;7.8;81.5
79301;SHT31;68755;51.984;5.646;2023-11-18T07:15:17;7.8;81.6
79301;SHT31;68755;51.984;5.646;2023-11-18T07:17:49;7.8;81.6
79301;SHT31;68755;51.984;5.646;2023-11-18T07:20:19;7.8;81.5
79301;SHT31;68755;51.984;5.646;2023-11-18T07:22:51;7.8;81.5
79301;SHT31;68755;51.984;5.646;2023-11-18T07:25:21;7.8;81.6
79301;SHT31;68755;51.984;5.646;2023-11-18T07:27:51;7.8;81.7
79301;SHT31;68755;51.984;5.646;2023-11-18T07:30:20;7.8;81.7
79301;SHT31;68755;51.984;5.646;2023-11-18T07:32:52;7.8;81.7
79301;SHT31;68755;51.984;5.646;2023-11-18T07:35:23;7.8;81.8
79301;SHT31;68755;51.984;5.646;2023-11-18T07:37:56;7.8;81.7
79301;SHT31;68755;51.984;5.646;2023-11-18T07:40:26;7.8;81.7
79301;SHT31;68755;51.984;5.646;2023-11-18T07:42:57;7.8;81.7
79301;SHT31;68755;51.984;5.646;2023-11-18T07:45:36;7.8;81.7
79301;SHT31;68755;51.984;5.646;2023-11-18T07:48:08;7.9;81.7
79301;SHT31;68755;51.984;5.646;2023-11-18T07:50:40;7.9;81.6
79301;SHT31;68755;51.984;5.646;2023-11-18T07:53:11;7.9;81.6
79301;SHT31;68755;51.984;5.646;2023-11-18T07:55:41;7.9;81.7
79301;SHT31;68755;51.984;5.646;2023-11-18T07:58:12;7.9;81.5
79301;SHT31;68755;51.984;5.646;2023-11-18T08:00:43;7.9;81.5
79301;SHT31;68755;51.984;5.646;2023-11-18T08:03:13;7.9;81.4
79301;SHT31;68755;51.984;5.646;2023-11-18T08:05:44;7.9;81.4
79301;SHT31;68755;51.984;5.646;2023-11-18T08:08:16;7.9;81.5
79301;SHT31;68755;51.984;5.646;2023-11-18T08:10:48;7.9;81.5
79301;SHT31;68755;51.984;5.646;2023-11-18T08:13:18;8.0;81.5
79301;SHT31;68755;51.984;5.646;2023-11-18T08:15:49;8.0;81.5
79301;SHT31;68755;51.984;5.646;2023-11-18T08:18:19;8.0;81.6
79301;SHT31;68755;51.984;5.646;2023-11-18T08:20:51;8.0;81.7
79301;SHT31;68755;51.984;5.646;2023-11-18T08:23:20;8.0;81.5
79301;SHT31;68755;51.984;5.646;2023-11-18T08:25:50;8.0;81.5
79301;SHT31;68755;51.984;5.646;2023-11-18T08:28:22;8.0;81.2
79301;SHT31;68755;51.984;5.646;2023-11-18T08:30:53;8.0;81.4
79301;SHT31;68755;51.984;5.646;2023-11-18T08:33:23;8.0;81.4
79301;SHT31;68755;51.984;5.646;2023-11-18T08:35:53;8.0;81.3
79301;SHT31;68755;51.984;5.646;2023-11-18T08:38:23;8.0;81.4
79301;SHT31;68755;51.984;5.646;2023-11-18T08:40:55;8.0;81.5
79301;SHT31;68755;51.984;5.646;2023-11-18T08:43:26;8.0;81.5
79301;SHT31;68755;51.984;5.646;2023-11-18T08:45:57;8.0;81.6
79301;SHT31;68755;51.984;5.646;2023-11-18T08:48:29;8.0;81.8
79301;SHT31;68755;51.984;5.646;2023-11-18T08:51:01;8.1;81.8
79301;SHT31;68755;51.984;5.646;2023-11-18T08:53:33;8.1;81.7
79301;SHT31;68755;51.984;5.646;2023-11-18T08:56:08;8.1;81.6
79301;SHT31;68755;51.984;5.646;2023-11-18T08:58:43;8.2;81.2
79301;SHT31;68755;51.984;5.646;2023-11-18T09:01:16;8.2;81.3
79301;SHT31;68755;51.984;5.646;2023-11-18T09:03:47;8.2;81.3
79301;SHT31;68755;51.984;5.646;2023-11-18T09:06:21;8.2;81.5
79301;SHT31;68755;51.984;5.646;2023-11-18T09:08:55;8.2;81.6
79301;SHT31;68755;51.984;5.646;2023-11-18T09:11:26;8.2;81.6
79301;SHT31;68755;51.984;5.646;2023-11-18T09:14:00;8.2;81.3
79301;SHT31;68755;51.984;5.646;2023-11-18T09:16:31;8.2;80.9
79301;SHT31;68755;51.984;5.646;2023-11-18T09:19:07;8.2;80.7
79301;SHT31;68755;51.984;5.646;2023-11-18T09:21:38;8.2;80.7
79301;SHT31;68755;51.984;5.646;2023-11-18T09:24:09;8.2;81.0
79301;SHT31;68755;51.984;5.646;2023-11-18T09:26:41;8.3;81.0
79301;SHT31;68755;51.984;5.646;2023-11-18T09:29:15;8.3;80.9
79301;SHT31;68755;51.984;5.646;2023-11-18T09:31:45;8.3;80.9
79301;SHT31;68755;51.984;5.646;2023-11-18T09:34:16;8.3;81.0
79301;SHT31;68755;51.984;5.646;2023-11-18T09:36:51;8.3;81.0
79301;SHT31;68755;51.984;5.646;2023-11-18T09:39:21;8.3;80.9
79301;SHT31;68755;51.984;5.646;2023-11-18T09:42:03;8.3;80.9
79301;SHT31;68755;51.984;5.646;2023-11-18T09:44:37;8.3;80.9
79301;SHT31;68755;51.984;5.646;2023-11-18T09:47:08;8.3;80.7
79301;SHT31;68755;51.984;5.646;2023-11-18T09:49:44;8.3;80.6
79301;SHT31;68755;51.984;5.646;2023-11-18T09:52:19;8.4;80.5
79301;SHT31;68755;51.984;5.646;2023-11-18T09:55:00;8.4;80.5
79301;SHT31;68755;51.984;5.646;2023-11-18T09:57:38;8.4;80.8
79301;SHT31;68755;51.984;5.646;2023-11-18T10:00:12;8.4;80.7
79301;SHT31;68755;51.984;5.646;2023-11-18T10:02:54;8.4;80.9
79301;SHT31;68755;51.984;5.646;2023-11-18T10:05:26;8.4;81.2
79301;SHT31;68755;51.984;5.646;2023-11-18T10:07:57;8.4;81.3
79301;SHT31;68755;51.984;5.646;2023-11-18T10:10:29;8.4;81.7
79301;SHT31;68755;51.984;5.646;2023-11-18T10:13:04;8.4;82.1
79301;SHT31;68755;51.984;5.646;2023-11-18T10:15:36;8.4;82.3
79301;SHT31;68755;51.984;5.646;2023-11-18T10:18:08;8.4;82.3
79301;SHT31;68755;51.984;5.646;2023-11-18T10:20:46;8.4;82.6
79301;SHT31;68755;51.984;5.646;2023-11-18T10:23:20;8.4;82.7
79301;SHT31;68755;51.984;5.646;2023-11-18T10:25:52;8.4;82.8
79301;SHT31;68755;51.984;5.646;2023-11-18T10:28:25;8.4;83.0
79301;SHT31;68755;51.984;5.646;2023-11-18T10:30:57;8.4;83.1
79301;SHT31;68755;51.984;5.646;2023-11-18T10:33:32;8.4;83.2
79301;SHT31;68755;51.984;5.646;2023-11-18T10:36:05;8.5;83.2
79301;SHT31;68755;51.984;5.646;2023-11-18T10:38:41;8.5;83.2
79301;SHT31;68755;51.984;5.646;2023-11-18T10:41:14;8.5;83.2
79301;SHT31;68755;51.984;5.646;2023-11-18T10:43:44;8.5;83.2
79301;SHT31;68755;51.984;5.646;2023-11-18T10:46:16;8.5;83.2
79301;SHT31;68755;51.984;5.646;2023-11-18T10:48:50;8.5;83.1
79301;SHT31;68755;51.984;5.646;2023-11-18T10:51:20;8.6;83.2
79301;SHT31;68755;51.984;5.646;2023-11-18T10:53:54;8.6;83.2
79301;SHT31;68755;51.984;5.646;2023-11-18T10:56:26;8.6;83.4
79301;SHT31;68755;51.984;5.646;2023-11-18T10:58:59;8.6;83.2
79301;SHT31;68755;51.984;5.646;2023-11-18T11:01:34;8.6;83.2
79301;SHT31;68755;51.984;5.646;2023-11-18T11:04:07;8.6;83.3
79301;SHT31;68755;51.984;5.646;2023-11-18T11:06:42;8.6;83.2
79301;SHT31;68755;51.984;5.646;2023-11-18T11:09:13;8.7;83.1
79301;SHT31;68755;51.984;5.646;2023-11-18T11:11:49;8.7;83.3
79301;SHT31;68755;51.984;5.646;2023-11-18T11:14:23;8.7;83.3
79301;SHT31;68755;51.984;5.646;2023-11-18T11:17:00;8.7;83.4
79301;SHT31;68755;51.984;5.646;2023-11-18T11:19:45;8.7;83.4
79301;SHT31;68755;51.984;5.646;2023-11-18T11:22:20;8.7;83.4
79301;SHT31;68755;51.984;5.646;2023-11-18T11:25:03;8.7;83.5
79301;SHT31;68755;51.984;5.646;2023-11-18T11:27:44;8.7;83.7
79301;SHT31;68755;51.984;5.646;2023-11-18T11:30:23;8.7;83.8
79301;SHT31;68755;51.984;5.646;2023-11-18T11:33:02;8.7;83.9
79301;SHT31;68755;51.984;5.646;2023-11-18T11:35:40;8.7;83.9
79301;SHT31;68755;51.984;5.646;2023-11-18T11:38:14;8.7;84.0
79301;SHT31;68755;51.984;5.646;2023-11-18T11:40:48;8.7;83.9
79301;SHT31;68755;51.984;5.646;2023-11-18T11:43:20;8.7;84.1
79301;SHT31;68755;51.984;5.646;2023-11-18T11:45:52;8.7;84.3
79301;SHT31;68755;51.984;5.646;2023-11-18T11:48:24;8.7;84.3
79301;SHT31;68755;51.984;5.646;2023-11-18T11:51:22;8.7;84.5
79301;SHT31;68755;51.984;5.646;2023-11-18T11:54:00;8.7;84.7
79301;SHT31;68755;51.984;5.646;2023-11-18T11:56:41;8.7;84.8
79301;SHT31;68755;51.984;5.646;2023-11-18T11:59:15;8.7;85.0
79301;SHT31;68755;51.984;5.646;2023-11-18T12:01:47;8.7;85.1
79301;SHT31;68755;51.984;5.646;2023-11-18T12:04:23;8.7;85.1
79301;SHT31;68755;51.984;5.646;2023-11-18T12:06:56;8.7;85.2
79301;SHT31;68755;51.984;5.646;2023-11-18T12:09:32;8.7;85.4
79301;SHT31;68755;51.984;5.646;2023-11-18T12:12:10;8.8;85.5
79301;SHT31;68755;51.984;5.646;2023-11-18T12:14:55;8.8;85.6
79301;SHT31;68755;51.984;5.646;2023-11-18T12:18:08;8.9;85.5
79301;SHT31;68755;51.984;5.646;2023-11-18T12:20:40;8.9;85.3
79301;SHT31;68755;51.984;5.646;2023-11-18T12:23:15;9.0;85.2
79301;SHT31;68755;51.984;5.646;2023-11-18T12:25:46;9.0;85.1
79301;SHT31;68755;51.984;5.646;2023-11-18T12:28:26;9.1;85.0
79301;SHT31;68755;51.984;5.646;2023-11-18T12:30:58;9.1;85.1
79301;SHT31;68755;51.984;5.646;2023-11-18T12:39:07;9.2;84.8
79301;SHT31;68755;51.984;5.646;2023-11-18T12:41:41;9.3;84.7
79301;SHT31;68755;51.984;5.646;2023-11-18T12:44:28;9.3;84.5
79301;SHT31;68755;51.984;5.646;2023-11-18T12:47:02;9.3;84.5
79301;SHT31;68755;51.984;5.646;2023-11-18T12:49:39;9.3;84.5
79301;SHT31;68755;51.984;5.646;2023-11-18T12:52:11;9.3;84.4
79301;SHT31;68755;51.984;5.646;2023-11-18T12:54:43;9.4;84.3
79301;SHT31;68755;51.984;5.646;2023-11-18T12:57:20;9.4;84.4
79301;SHT31;68755;51.984;5.646;2023-11-18T12:59:52;9.4;84.5
79301;SHT31;68755;51.984;5.646;2023-11-18T13:02:27;9.4;84.5
79301;SHT31;68755;51.984;5.646;2023-11-18T13:05:08;9.4;84.5
79301;SHT31;68755;51.984;5.646;2023-11-18T13:07:44;9.4;84.4
79301;SHT31;68755;51.984;5.646;2023-11-18T13:10:16;9.4;84.4
79301;SHT31;68755;51.984;5.646;2023-11-18T13:12:50;9.5;84.3
79301;SHT31;68755;51.984;5.646;2023-11-18T13:15:20;9.5;84.3
79301;SHT31;68755;51.984;5.646;2023-11-18T13:18:00;9.5;84.2
79301;SHT31;68755;51.984;5.646;2023-11-18T13:20:34;9.5;84.2
79301;SHT31;68755;51.984;5.646;2023-11-18T13:23:10;9.5;84.1
79301;SHT31;68755;51.984;5.646;2023-11-18T13:25:43;9.5;84.2
79301;SHT31;68755;51.984;5.646;2023-11-18T13:28:16;9.5;84.2
79301;SHT31;68755;51.984;5.646;2023-11-18T13:30:47;9.5;84.2
79301;SHT31;68755;51.984;5.646;2023-11-18T13:33:17;9.6;84.0
79301;SHT31;68755;51.984;5.646;2023-11-18T13:35:49;9.6;84.1
79301;SHT31;68755;51.984;5.646;2023-11-18T13:38:19;9.6;84.2
79301;SHT31;68755;51.984;5.646;2023-11-18T13:40:50;9.6;84.2
79301;SHT31;68755;51.984;5.646;2023-11-18T13:43:20;9.6;84.1
79301;SHT31;68755;51.984;5.646;2023-11-18T13:45:54;9.6;84.0
79301;SHT31;68755;51.984;5.646;2023-11-18T13:48:30;9.6;84.1
79301;SHT31;68755;51.984;5.646;2023-11-18T13:51:03;9.6;84.1
79301;SHT31;68755;51.984;5.646;2023-11-18T13:53:36;9.6;84.1
79301;SHT31;68755;51.984;5.646;2023-11-18T13:56:08;9.6;84.2
79301;SHT31;68755;51.984;5.646;2023-11-18T13:58:40;9.6;84.2
79301;SHT31;68755;51.984;5.646;2023-11-18T14:01:13;9.6;84.3
79301;SHT31;68755;51.984;5.646;2023-11-18T14:03:43;9.6;84.3
79301;SHT31;68755;51.984;5.646;2023-11-18T14:06:15;9.6;84.4
79301;SHT31;68755;51.984;5.646;2023-11-18T14:08:45;9.6;84.5
79301;SHT31;68755;51.984;5.646;2023-11-18T14:11:15;9.6;84.5
79301;SHT31;68755;51.984;5.646;2023-11-18T14:13:47;9.6;84.5
79301;SHT31;68755;51.984;5.646;2023-11-18T14:16:16;9.6;84.6
79301;SHT31;68755;51.984;5.646;2023-11-18T14:18:48;9.6;84.7
79301;SHT31;68755;51.984;5.646;2023-11-18T14:21:19;9.6;84.8
79301;SHT31;68755;51.984;5.646;2023-11-18T14:23:48;9.6;84.9
79301;SHT31;68755;51.984;5.646;2023-11-18T14:26:18;9.5;84.8
79301;SHT31;68755;51.984;5.646;2023-11-18T14:28:48;9.5;84.9
79301;SHT31;68755;51.984;5.646;2023-11-18T14:31:18;9.5;84.9
79301;SHT31;68755;51.984;5.646;2023-11-18T14:33:49;9.5;84.9
79301;SHT31;68755;51.984;5.646;2023-11-18T14:36:19;9.5;85.0
79301;SHT31;68755;51.984;5.646;2023-11-18T14:38:49;9.5;85.0
79301;SHT31;68755;51.984;5.646;2023-11-18T14:41:19;9.5;85.0
79301;SHT31;68755;51.984;5.646;2023-11-18T14:43:53;9.5;84.9
79301;SHT31;68755;51.984;5.646;2023-11-18T14:46:23;9.5;84.8
79301;SHT31;68755;51.984;5.646;2023-11-18T14:48:57;9.5;84.8
79301;SHT31;68755;51.984;5.646;2023-11-18T14:51:26;9.6;84.8
79301;SHT31;68755;51.984;5.646;2023-11-18T14:53:56;9.6;84.8
79301;SHT31;68755;51.984;5.646;2023-11-18T14:56:27;9.6;84.8
79301;SHT31;68755;51.984;5.646;2023-11-18T14:58:57;9.6;84.8
79301;SHT31;68755;51.984;5.646;2023-11-18T15:01:27;9.6;84.7
79301;SHT31;68755;51.984;5.646;2023-11-18T15:03:57;9.6;84.7
79301;SHT31;68755;51.984;5.646;2023-11-18T15:06:27;9.6;84.6
79301;SHT31;68755;51.984;5.646;2023-11-18T15:08:58;9.6;84.4
79301;SHT31;68755;51.984;5.646;2023-11-18T15:11:30;9.5;84.4
79301;SHT31;68755;51.984;5.646;2023-11-18T15:14:01;9.5;84.6
79301;SHT31;68755;51.984;5.646;2023-11-18T15:16:30;9.5;84.7
79301;SHT31;68755;51.984;5.646;2023-11-18T15:19:00;9.5;84.8
79301;SHT31;68755;51.984;5.646;2023-11-18T15:21:30;9.5;84.8
79301;SHT31;68755;51.984;5.646;2023-11-18T15:23:59;9.5;85.0
79301;SHT31;68755;51.984;5.646;2023-11-18T15:26:31;9.5;85.1
79301;SHT31;68755;51.984;5.646;2023-11-18T15:29:03;9.5;85.1
79301;SHT31;68755;51.984;5.646;2023-11-18T15:31:37;9.5;85.1
79301;SHT31;68755;51.984;5.646;2023-11-18T15:34:07;9.5;85.3
79301;SHT31;68755;51.984;5.646;2023-11-18T15:36:42;9.6;85.2
79301;SHT31;68755;51.984;5.646;2023-11-18T15:39:12;9.6;85.0
79301;SHT31;68755;51.984;5.646;2023-11-18T15:41:42;9.6;84.9
79301;SHT31;68755;51.984;5.646;2023-11-18T15:44:12;9.7;84.6
79301;SHT31;68755;51.984;5.646;2023-11-18T15:46:49;9.7;84.5
79301;SHT31;68755;51.984;5.646;2023-11-18T15:49:20;9.7;84.6
79301;SHT31;68755;51.984;5.646;2023-11-18T15:53:19;10.1;81.8
79301;SHT31;68755;51.984;5.646;2023-11-18T15:55:52;10.0;82.6
79301;SHT31;68755;51.984;5.646;2023-11-18T15:58:21;10.0;82.7
79301;SHT31;68755;51.984;5.646;2023-11-18T16:00:53;10.0;82.7
79301;SHT31;68755;51.984;5.646;2023-11-18T16:03:25;10.0;82.8
79301;SHT31;68755;51.984;5.646;2023-11-18T16:05:55;10.0;83.0
79301;SHT31;68755;51.984;5.646;2023-11-18T16:08:26;10.0;83.2
79301;SHT31;68755;51.984;5.646;2023-11-18T16:10:56;9.9;83.4
79301;SHT31;68755;51.984;5.646;2023-11-18T16:13:27;9.9;83.5
79301;SHT31;68755;51.984;5.646;2023-11-18T16:15:57;9.9;83.6
79301;SHT31;68755;51.984;5.646;2023-11-18T16:18:26;9.9;83.8
79301;SHT31;68755;51.984;5.646;2023-11-18T16:20:56;9.9;84.0
79301;SHT31;68755;51.984;5.646;2023-11-18T16:23:29;9.9;84.2
79301;SHT31;68755;51.984;5.646;2023-11-18T16:26:02;9.8;84.3
79301;SHT31;68755;51.984;5.646;2023-11-18T16:28:34;9.8;84.4
79301;SHT31;68755;51.984;5.646;2023-11-18T16:31:05;9.8;84.6
79301;SHT31;68755;51.984;5.646;2023-11-18T16:33:35;9.8;84.8
79301;SHT31;68755;51.984;5.646;2023-11-18T16:36:05;9.8;84.9
79301;SHT31;68755;51.984;5.646;2023-11-18T16:38:34;9.8;85.0
79301;SHT31;68755;51.984;5.646;2023-11-18T16:41:04;9.8;85.3
79301;SHT31;68755;51.984;5.646;2023-11-18T16:43:34;9.8;85.6
79301;SHT31;68755;51.984;5.646;2023-11-18T16:46:03;9.8;85.8
79301;SHT31;68755;51.984;5.646;2023-11-18T16:48:35;9.8;86.0
79301;SHT31;68755;51.984;5.646;2023-11-18T16:51:05;9.8;86.1
79301;SHT31;68755;51.984;5.646;2023-11-18T16:53:35;9.8;86.2